createdAt,value
2022-10-31T00:00:51.845Z,10.80
2022-10-31T00:03:58.192Z,10.50
2022-10-31T00:06:48.097Z,10.40
2022-10-31T00:09:38.643Z,10.40
2022-10-31T00:12:29.036Z,10.90
2022-10-31T00:15:19.172Z,11.60
2022-10-31T00:18:09.743Z,10.80
2022-10-31T00:21:03.271Z,11.10
2022-10-31T00:23:53.216Z,10.20
2022-10-31T00:26:43.142Z,10.40
2022-10-31T00:29:33.324Z,10.50
2022-10-31T00:32:23.219Z,11.10
2022-10-31T00:35:13.159Z,10.40
2022-10-31T00:38:03.048Z,10.40
2022-10-31T00:40:52.949Z,10.70
2022-10-31T00:43:43.440Z,10.00
2022-10-31T00:46:34.035Z,10.10
2022-10-31T00:49:24.115Z,10.10
2022-10-31T00:52:14.022Z,10.20
2022-10-31T00:55:05.286Z,9.70
2022-10-31T00:57:55.644Z,9.70
2022-10-31T01:00:50.931Z,9.80
2022-10-31T01:03:42.196Z,9.90
2022-10-31T01:06:35.277Z,9.70
2022-10-31T01:09:25.208Z,9.90
2022-10-31T01:12:15.132Z,10.30
2022-10-31T01:15:07.505Z,9.30
2022-10-31T01:17:58.889Z,9.60
2022-10-31T01:20:49.082Z,10.00
2022-10-31T01:23:39.022Z,9.40
2022-10-31T01:26:31.076Z,10.20
2022-10-31T01:29:20.979Z,9.30
2022-10-31T01:32:11.134Z,9.00
2022-10-31T01:35:01.587Z,9.20
2022-10-31T01:37:51.533Z,9.40
2022-10-31T01:40:41.625Z,9.40
2022-10-31T01:43:46.979Z,8.70
2022-10-31T01:46:39.140Z,8.80
2022-10-31T01:49:36.900Z,8.90
2022-10-31T01:52:28.952Z,8.70
2022-10-31T01:55:25.144Z,8.90
2022-10-31T01:58:21.211Z,8.90
2022-10-31T02:01:11.415Z,9.00
2022-10-31T02:04:01.361Z,8.40
2022-10-31T02:06:55.360Z,8.90
2022-10-31T02:09:45.650Z,9.00
2022-10-31T02:12:36.422Z,8.40
2022-10-31T02:15:28.104Z,8.90
2022-10-31T02:18:17.990Z,7.80
2022-10-31T02:21:16.486Z,7.50
2022-10-31T02:24:40.598Z,7.80
2022-10-31T02:28:10.336Z,8.50
2022-10-31T02:31:19.685Z,8.30
2022-10-31T02:34:16.340Z,7.80
2022-10-31T02:37:12.634Z,7.90
2022-10-31T02:40:10.141Z,8.10
2022-10-31T02:43:22.664Z,7.60
2022-10-31T02:46:16.028Z,8.30
2022-10-31T02:49:10.913Z,8.60
2022-10-31T02:54:51.123Z,7.70
2022-10-31T02:57:42.667Z,8.40
2022-10-31T03:00:44.766Z,8.20
2022-10-31T03:03:42.326Z,8.60
2022-10-31T03:06:34.252Z,8.40
2022-10-31T03:09:27.927Z,8.80
2022-10-31T03:12:22.527Z,9.10
2022-10-31T03:15:18.747Z,9.00
2022-10-31T03:18:11.485Z,8.90
2022-10-31T03:21:06.706Z,8.90
2022-10-31T03:26:53.033Z,8.80
2022-10-31T03:29:43.150Z,9.50
2022-10-31T03:32:35.454Z,9.80
2022-10-31T03:35:27.512Z,9.50
2022-10-31T03:38:17.526Z,9.20
2022-10-31T03:41:10.608Z,9.00
2022-10-31T03:44:01.984Z,9.20
2022-10-31T03:46:51.889Z,9.80
2022-10-31T03:49:41.890Z,9.80
2022-10-31T03:52:36.285Z,10.10
2022-10-31T03:55:28.944Z,10.10
2022-10-31T03:58:22.790Z,9.30
2022-10-31T04:01:14.939Z,9.60
2022-10-31T04:04:05.054Z,9.80
2022-10-31T04:06:55.277Z,10.10
2022-10-31T04:09:46.614Z,9.50
2022-10-31T04:12:36.726Z,9.50
2022-10-31T04:15:39.706Z,9.60
2022-10-31T04:18:29.857Z,10.20
2022-10-31T04:21:19.756Z,10.10
2022-10-31T04:24:10.309Z,10.70
2022-10-31T04:27:01.948Z,10.70
2022-10-31T04:29:52.109Z,9.80
2022-10-31T04:32:42.018Z,9.80
2022-10-31T04:35:31.929Z,10.10
2022-10-31T04:38:21.828Z,10.30
2022-10-31T04:41:12.069Z,10.30
2022-10-31T04:44:16.070Z,9.70
2022-10-31T04:47:06.686Z,10.20
2022-10-31T04:49:56.980Z,10.50
2022-10-31T04:52:47.684Z,10.20
2022-10-31T04:55:40.164Z,10.80
2022-10-31T04:58:41.657Z,10.40
2022-10-31T05:01:32.404Z,10.30
2022-10-31T05:04:23.136Z,10.00
2022-10-31T05:07:13.327Z,10.30
2022-10-31T05:10:03.502Z,10.40
2022-10-31T05:12:55.349Z,9.90
2022-10-31T05:16:09.225Z,10.60
2022-10-31T05:19:37.830Z,10.70
2022-10-31T05:22:57.874Z,10.10
2022-10-31T05:25:48.216Z,9.80
2022-10-31T05:28:38.231Z,10.20
2022-10-31T05:31:28.763Z,10.60
2022-10-31T05:34:18.860Z,10.30
2022-10-31T05:37:08.832Z,10.20
2022-10-31T05:40:01.246Z,10.40
2022-10-31T05:42:54.987Z,10.40
2022-10-31T05:45:45.423Z,10.10
2022-10-31T05:48:49.923Z,10.20
2022-10-31T05:51:58.988Z,10.10
2022-10-31T05:54:55.698Z,9.90
2022-10-31T05:57:45.755Z,10.60
2022-10-31T06:00:37.877Z,10.00
2022-10-31T06:03:30.785Z,10.00
2022-10-31T06:06:22.640Z,9.80
2022-10-31T06:09:13.707Z,10.50
2022-10-31T06:12:03.920Z,10.00
2022-10-31T06:15:13.144Z,9.50
2022-10-31T06:18:04.903Z,9.50
2022-10-31T06:20:59.007Z,10.60
2022-10-31T06:23:49.196Z,10.10
2022-10-31T06:27:17.264Z,9.20
2022-10-31T06:30:10.847Z,9.30
2022-10-31T06:33:05.763Z,8.90
2022-10-31T06:35:58.136Z,9.00
2022-10-31T06:38:48.392Z,9.40
2022-10-31T06:41:40.046Z,9.70
2022-10-31T06:44:30.312Z,9.30
2022-10-31T06:47:23.644Z,9.30
2022-10-31T06:50:36.526Z,8.60
2022-10-31T06:53:26.719Z,8.70
2022-10-31T06:56:16.914Z,8.80
2022-10-31T06:59:11.305Z,8.80
2022-10-31T07:02:33.685Z,9.50
2022-10-31T07:05:25.000Z,9.60
2022-10-31T07:08:15.951Z,9.60
2022-10-31T07:11:06.598Z,10.40
2022-10-31T07:13:57.521Z,11.80
2022-10-31T07:16:50.976Z,12.00
2022-10-31T07:19:42.193Z,11.50
2022-10-31T07:22:36.176Z,11.50
2022-10-31T07:25:26.994Z,9.60
2022-10-31T07:28:47.737Z,9.10
2022-10-31T07:31:38.569Z,10.50
2022-10-31T07:34:34.011Z,10.40
2022-10-31T07:37:41.500Z,10.90
2022-10-31T07:40:31.827Z,9.70
2022-10-31T07:43:21.782Z,8.60
2022-10-31T07:46:28.547Z,8.80
2022-10-31T07:49:38.785Z,8.10
2022-10-31T07:52:47.222Z,8.70
2022-10-31T07:56:07.157Z,7.80
2022-10-31T07:58:57.693Z,7.80
2022-10-31T08:01:47.604Z,8.60
2022-10-31T08:05:02.251Z,8.10
2022-10-31T08:07:52.789Z,7.70
2022-10-31T08:10:43.197Z,8.10
2022-10-31T08:13:33.191Z,7.40
2022-10-31T08:16:23.524Z,7.60
2022-10-31T08:19:17.815Z,7.80
2022-10-31T08:22:07.991Z,7.10
2022-10-31T08:24:58.519Z,7.40
2022-10-31T08:27:52.261Z,7.80
2022-10-31T08:30:44.388Z,7.10
2022-10-31T08:33:54.789Z,7.70
2022-10-31T08:37:03.597Z,6.90
2022-10-31T08:40:02.524Z,6.80
2022-10-31T08:43:00.688Z,6.60
2022-10-31T08:45:51.124Z,6.50
2022-10-31T08:48:45.568Z,7.20
2022-10-31T08:51:35.927Z,6.70
2022-10-31T08:54:25.823Z,7.20
2022-10-31T08:57:18.438Z,6.40
2022-10-31T09:00:12.469Z,6.30
2022-10-31T09:03:21.335Z,6.70
2022-10-31T09:06:11.294Z,6.40
2022-10-31T09:09:01.320Z,7.00
2022-10-31T09:11:51.883Z,6.70
2022-10-31T09:15:02.323Z,6.40
2022-10-31T09:17:59.055Z,6.50
2022-10-31T09:21:12.416Z,6.30
2022-10-31T09:24:02.428Z,6.40
2022-10-31T09:26:52.386Z,6.00
2022-10-31T09:29:51.386Z,6.40
2022-10-31T09:32:42.399Z,6.70
2022-10-31T09:35:32.411Z,6.10
2022-10-31T09:38:24.067Z,6.30
2022-10-31T09:41:20.425Z,6.60
2022-10-31T09:44:18.340Z,6.40
2022-10-31T09:47:14.017Z,6.60
2022-10-31T09:50:16.661Z,5.80
2022-10-31T09:53:10.727Z,6.30
2022-10-31T09:56:01.113Z,6.20
2022-10-31T09:58:55.643Z,6.20
2022-10-31T10:01:49.679Z,6.60
2022-10-31T10:04:43.443Z,6.10
2022-10-31T10:07:48.394Z,6.30
2022-10-31T10:14:21.084Z,7.80
2022-10-31T10:17:28.735Z,9.00
2022-10-31T10:20:29.026Z,9.60
2022-10-31T10:23:45.403Z,13.90
2022-10-31T10:26:41.169Z,10.50
2022-10-31T10:29:38.548Z,10.60
2022-10-31T10:32:30.446Z,9.80
2022-10-31T10:35:26.999Z,10.40
2022-10-31T10:38:27.203Z,10.40
2022-10-31T10:41:20.554Z,10.20
2022-10-31T10:44:12.418Z,9.70
2022-10-31T10:47:20.903Z,10.10
2022-10-31T10:50:16.413Z,10.20
2022-10-31T10:53:21.672Z,10.70
2022-10-31T10:56:18.075Z,10.60
2022-10-31T10:59:11.979Z,10.20
2022-10-31T11:02:01.972Z,10.40
2022-10-31T11:04:53.507Z,10.00
2022-10-31T11:07:46.565Z,10.40
2022-10-31T11:10:36.639Z,10.20
2022-10-31T11:13:27.096Z,9.80
2022-10-31T11:16:29.740Z,9.90
2022-10-31T11:19:21.967Z,9.60
2022-10-31T11:22:17.920Z,9.90
2022-10-31T11:25:23.547Z,10.20
2022-10-31T11:28:13.613Z,10.20
2022-10-31T11:31:09.454Z,9.10
2022-10-31T11:34:02.891Z,13.20
2022-10-31T11:36:52.784Z,18.00
2022-10-31T11:39:44.325Z,14.80
2022-10-31T11:42:39.878Z,12.90
2022-10-31T11:45:34.200Z,12.20
2022-10-31T11:48:25.514Z,12.10
2022-10-31T11:51:20.119Z,13.00
2022-10-31T11:54:23.683Z,17.40
2022-10-31T11:57:26.746Z,16.50
2022-10-31T12:00:25.556Z,15.60
2022-10-31T12:03:27.669Z,13.70
2022-10-31T12:06:21.618Z,13.30
2022-10-31T12:09:21.164Z,14.10
2022-10-31T12:12:53.377Z,13.90
2022-10-31T12:15:47.139Z,12.60
2022-10-31T12:19:03.218Z,12.60
2022-10-31T12:22:13.078Z,12.90
2022-10-31T12:25:15.523Z,12.60
2022-10-31T12:28:55.189Z,19.20
2022-10-31T12:31:54.368Z,22.60
2022-10-31T12:34:55.328Z,23.70
2022-10-31T12:37:57.361Z,22.90
2022-10-31T12:41:00.101Z,20.20
2022-10-31T12:43:56.473Z,16.80
2022-10-31T12:47:13.199Z,16.20
2022-10-31T12:50:14.605Z,15.70
2022-10-31T12:56:24.379Z,15.50
2022-10-31T12:59:22.431Z,15.20
2022-10-31T13:02:19.668Z,16.80
2022-10-31T13:05:28.044Z,14.10
2022-10-31T13:08:19.833Z,14.90
2022-10-31T13:11:21.220Z,13.80
2022-10-31T13:14:15.253Z,13.60
2022-10-31T13:17:05.473Z,14.80
2022-10-31T13:20:00.279Z,15.00
2022-10-31T13:22:54.459Z,14.70
2022-10-31T13:25:48.451Z,15.40
2022-10-31T13:31:32.213Z,13.80
2022-10-31T13:34:27.455Z,14.30
2022-10-31T13:37:23.586Z,14.30
2022-10-31T13:43:18.152Z,15.20
2022-10-31T13:46:26.089Z,14.10
2022-10-31T13:49:38.784Z,14.00
2022-10-31T13:52:29.689Z,15.20
2022-10-31T13:55:40.402Z,14.80
2022-10-31T13:58:31.379Z,13.80
2022-10-31T14:01:22.887Z,14.20
2022-10-31T14:04:24.717Z,13.80
2022-10-31T14:07:17.249Z,13.60
2022-10-31T14:10:21.653Z,14.40
2022-10-31T14:13:19.431Z,14.40
2022-10-31T14:16:21.048Z,14.10
2022-10-31T14:19:16.264Z,14.20
2022-10-31T14:22:19.651Z,13.60
2022-10-31T14:25:31.620Z,13.60
2022-10-31T14:28:32.671Z,13.60
2022-10-31T14:31:36.541Z,13.20
2022-10-31T14:34:31.484Z,12.70
2022-10-31T14:38:14.635Z,13.80
2022-10-31T14:41:42.551Z,13.00
2022-10-31T14:45:14.463Z,12.60
2022-10-31T14:48:24.151Z,12.30
2022-10-31T14:51:16.263Z,11.80
2022-10-31T14:54:08.883Z,12.40
2022-10-31T14:57:01.804Z,12.90
2022-10-31T15:00:02.628Z,12.80
2022-10-31T15:03:15.068Z,13.00
2022-10-31T15:06:17.237Z,13.00
2022-10-31T15:09:27.794Z,13.70
2022-10-31T15:12:45.413Z,14.50
2022-10-31T15:15:52.003Z,13.70
2022-10-31T15:18:51.275Z,14.60
2022-10-31T15:21:46.144Z,14.70
2022-10-31T15:24:38.430Z,15.20
2022-10-31T15:27:30.461Z,13.60
2022-10-31T15:30:24.522Z,13.80
2022-10-31T15:33:23.321Z,14.10
2022-10-31T15:36:24.039Z,14.40
2022-10-31T15:39:17.734Z,14.50
2022-10-31T15:42:17.879Z,14.70
2022-10-31T15:45:19.447Z,14.60
2022-10-31T15:48:17.584Z,16.60
2022-10-31T15:51:07.823Z,14.30
2022-10-31T15:53:57.829Z,18.00
2022-10-31T15:56:47.999Z,15.80
2022-10-31T15:59:38.219Z,17.10
2022-10-31T16:02:28.865Z,16.20
2022-10-31T16:05:20.743Z,15.60
2022-10-31T16:08:33.267Z,15.50
2022-10-31T16:11:30.867Z,20.10
2022-10-31T16:14:25.872Z,16.90
2022-10-31T16:17:17.542Z,16.00
2022-10-31T16:20:08.790Z,16.40
2022-10-31T16:22:59.142Z,14.90
2022-10-31T16:25:50.047Z,15.90
2022-10-31T16:28:53.402Z,16.10
2022-10-31T16:31:46.850Z,15.20
2022-10-31T16:34:42.175Z,15.20
2022-10-31T16:37:32.401Z,16.50
2022-10-31T16:40:25.401Z,15.50
2022-10-31T16:43:18.191Z,16.90
2022-10-31T16:46:10.933Z,16.20
2022-10-31T16:49:01.095Z,16.60
2022-10-31T16:51:51.269Z,16.60
2022-10-31T16:54:41.482Z,16.20
2022-10-31T16:57:32.498Z,16.50
2022-10-31T17:00:24.464Z,15.80
2022-10-31T17:03:14.423Z,15.80
2022-10-31T17:06:05.331Z,16.10
2022-10-31T17:08:55.429Z,16.20
2022-10-31T17:11:49.771Z,16.00
2022-10-31T17:14:40.486Z,16.30
2022-10-31T17:17:30.783Z,15.50
2022-10-31T17:20:24.323Z,15.70
2022-10-31T17:23:15.629Z,15.90
2022-10-31T17:26:08.380Z,15.40
2022-10-31T17:29:01.599Z,15.90
2022-10-31T17:31:51.981Z,14.50
2022-10-31T17:34:42.313Z,14.60
2022-10-31T17:37:32.440Z,15.10
2022-10-31T17:40:22.880Z,15.30
2022-10-31T17:43:13.074Z,15.20
2022-10-31T17:46:03.441Z,15.90
2022-10-31T17:48:53.675Z,15.50
2022-10-31T17:51:44.292Z,15.60
2022-10-31T17:54:34.872Z,16.40
2022-10-31T17:57:25.389Z,15.40
2022-10-31T18:00:20.430Z,15.40
2022-10-31T18:03:11.482Z,15.50
2022-10-31T18:06:01.959Z,15.90
2022-10-31T18:08:55.687Z,17.70
2022-10-31T18:11:46.546Z,16.30
2022-10-31T18:14:36.984Z,16.60
2022-10-31T18:17:28.528Z,16.30
2022-10-31T18:20:19.077Z,16.10
2022-10-31T18:23:12.953Z,16.40
2022-10-31T18:26:04.150Z,16.60
2022-10-31T18:28:54.468Z,16.80
2022-10-31T18:31:47.898Z,17.20
2022-10-31T18:34:38.076Z,16.80
2022-10-31T18:37:28.830Z,17.10
2022-10-31T18:40:19.637Z,17.20
2022-10-31T18:43:10.507Z,18.20
2022-10-31T18:46:07.044Z,18.20
2022-10-31T18:48:57.255Z,18.70
2022-10-31T18:51:47.411Z,19.20
2022-10-31T18:54:37.708Z,17.60
2022-10-31T18:57:29.311Z,17.60
2022-10-31T19:00:21.096Z,17.40
2022-10-31T19:03:11.827Z,18.20
2022-10-31T19:06:05.142Z,21.30
2022-10-31T19:09:00.954Z,22.00
2022-10-31T19:15:06.909Z,17.30
2022-10-31T19:18:31.303Z,19.30
2022-10-31T19:21:47.663Z,19.60
2022-10-31T19:25:09.344Z,20.60
2022-10-31T19:28:20.253Z,19.30
2022-10-31T19:35:16.072Z,18.00
2022-10-31T19:38:16.823Z,15.10
2022-10-31T19:41:45.574Z,14.70
2022-10-31T19:44:52.634Z,15.10
2022-10-31T19:47:56.417Z,15.20
2022-10-31T19:51:12.026Z,14.30
2022-10-31T19:54:14.947Z,14.60
2022-10-31T19:57:07.949Z,15.40
2022-10-31T20:00:03.301Z,15.10
2022-10-31T20:03:05.521Z,15.30
2022-10-31T20:06:06.227Z,15.20
2022-10-31T20:08:57.459Z,15.10
2022-10-31T20:11:48.209Z,14.90
2022-10-31T20:14:38.860Z,16.20
2022-10-31T20:17:29.865Z,15.40
2022-10-31T20:20:21.958Z,16.40
2022-10-31T20:23:12.587Z,14.50
2022-10-31T20:26:04.712Z,15.10
2022-10-31T20:28:56.738Z,16.50
2022-10-31T20:31:50.339Z,15.10
2022-10-31T20:34:41.725Z,15.80
2022-10-31T20:37:32.376Z,16.10
2022-10-31T20:40:27.293Z,16.90
2022-10-31T20:43:18.611Z,14.90
2022-10-31T20:46:12.103Z,15.40
2022-10-31T20:49:03.221Z,15.50
2022-10-31T20:51:54.099Z,15.00
2022-10-31T20:54:45.040Z,14.90
2022-10-31T20:57:36.414Z,15.70
2022-10-31T21:00:27.472Z,15.80
2022-10-31T21:03:37.888Z,14.90
2022-10-31T21:06:28.795Z,16.10
2022-10-31T21:09:19.800Z,15.60
2022-10-31T21:12:10.305Z,14.90
2022-10-31T21:15:19.340Z,15.40
2022-10-31T21:20:13.507Z,16.30
2022-10-31T21:23:43.672Z,14.90
2022-10-31T21:26:38.179Z,15.90
2022-10-31T21:29:29.373Z,14.80
2022-10-31T21:32:20.423Z,14.60
2022-10-31T21:35:11.719Z,15.00
2022-10-31T21:38:02.560Z,15.10
2022-10-31T21:41:00.920Z,14.80
2022-10-31T21:43:53.704Z,15.20
2022-10-31T21:46:46.909Z,14.80
2022-10-31T21:49:37.647Z,15.00
2022-10-31T21:52:28.277Z,14.70
2022-10-31T21:55:19.013Z,15.20
2022-10-31T21:58:09.549Z,15.30
2022-10-31T22:01:03.650Z,14.60
2022-10-31T22:03:54.404Z,14.60
2022-10-31T22:06:48.609Z,15.20
2022-10-31T22:09:40.936Z,14.90
2022-10-31T22:12:40.926Z,14.20
2022-10-31T22:15:32.577Z,15.10
2022-10-31T22:18:34.659Z,14.40
2022-10-31T22:21:28.513Z,14.20
2022-10-31T22:24:20.452Z,13.80
2022-10-31T22:27:14.947Z,13.90
2022-10-31T22:30:08.871Z,13.40
2022-10-31T22:32:59.934Z,13.80
2022-10-31T22:35:51.671Z,13.50
2022-10-31T22:38:43.293Z,12.30
2022-10-31T22:41:36.785Z,13.70
2022-10-31T22:44:27.768Z,14.20
2022-10-31T22:47:20.827Z,13.90
2022-10-31T22:50:12.030Z,12.80
2022-10-31T22:53:03.250Z,12.60
2022-10-31T22:55:55.947Z,13.00
2022-10-31T22:58:47.545Z,12.60
2022-10-31T23:01:38.437Z,13.60
2022-10-31T23:04:29.623Z,12.60
2022-10-31T23:07:23.144Z,12.30
2022-10-31T23:10:15.016Z,12.10
2022-10-31T23:13:25.258Z,12.10
2022-10-31T23:16:16.278Z,12.30
2022-10-31T23:19:11.261Z,12.00
2022-10-31T23:22:04.140Z,12.40
2022-10-31T23:24:54.948Z,12.20
2022-10-31T23:27:46.211Z,11.50
2022-10-31T23:30:38.137Z,11.80
2022-10-31T23:33:31.454Z,11.90
2022-10-31T23:36:23.084Z,11.90
2022-10-31T23:39:13.695Z,12.70
2022-10-31T23:42:04.747Z,11.60
2022-10-31T23:44:55.452Z,11.40
2022-10-31T23:47:45.989Z,11.40
2022-10-31T23:50:36.541Z,11.40
2022-10-31T23:53:27.430Z,11.60
2022-10-31T23:56:19.571Z,10.80
2022-10-31T23:59:11.204Z,11.10
